sensor_id;sensor_type;location;lat;lon;timestamp;P1;durP1;ratioP1;P2;durP2;ratioP2
77586;SDS011;66744;49.716;17.158;2023-04-25T00:01:02;2.53;;;1.90;;
77586;SDS011;66744;49.716;17.158;2023-04-25T00:04:05;2.30;;;1.85;;
77586;SDS011;66744;49.716;17.158;2023-04-25T00:07:08;3.55;;;2.20;;
77586;SDS011;66744;49.716;17.158;2023-04-25T00:10:09;3.17;;;2.88;;
77586;SDS011;66744;49.716;17.158;2023-04-25T00:13:12;4.32;;;1.90;;
77586;SDS011;66744;49.716;17.158;2023-04-25T00:16:14;4.30;;;2.78;;
77586;SDS011;66744;49.716;17.158;2023-04-25T00:19:16;2.30;;;1.95;;
77586;SDS011;66744;49.716;17.158;2023-04-25T00:22:17;5.20;;;2.67;;
77586;SDS011;66744;49.716;17.158;2023-04-25T00:25:18;3.50;;;2.10;;
77586;SDS011;66744;49.716;17.158;2023-04-25T00:28:19;3.60;;;2.03;;
77586;SDS011;66744;49.716;17.158;2023-04-25T00:31:21;2.95;;;2.53;;
77586;SDS011;66744;49.716;17.158;2023-04-25T00:34:22;4.43;;;2.85;;
77586;SDS011;66744;49.716;17.158;2023-04-25T00:37:23;3.03;;;2.72;;
77586;SDS011;66744;49.716;17.158;2023-04-25T00:40:25;2.78;;;2.13;;
77586;SDS011;66744;49.716;17.158;2023-04-25T00:43:27;3.15;;;2.25;;
77586;SDS011;66744;49.716;17.158;2023-04-25T00:46:31;3.88;;;2.88;;
77586;SDS011;66744;49.716;17.158;2023-04-25T00:49:32;3.00;;;2.40;;
77586;SDS011;66744;49.716;17.158;2023-04-25T00:52:33;3.03;;;2.30;;
77586;SDS011;66744;49.716;17.158;2023-04-25T00:55:35;2.42;;;2.22;;
77586;SDS011;66744;49.716;17.158;2023-04-25T00:58:36;3.03;;;2.22;;
77586;SDS011;66744;49.716;17.158;2023-04-25T01:01:39;3.83;;;2.22;;
77586;SDS011;66744;49.716;17.158;2023-04-25T01:04:41;3.85;;;2.47;;
77586;SDS011;66744;49.716;17.158;2023-04-25T01:07:42;3.30;;;2.50;;
77586;SDS011;66744;49.716;17.158;2023-04-25T01:10:43;3.92;;;2.42;;
77586;SDS011;66744;49.716;17.158;2023-04-25T01:13:45;4.93;;;2.60;;
77586;SDS011;66744;49.716;17.158;2023-04-25T01:16:46;3.42;;;2.90;;
77586;SDS011;66744;49.716;17.158;2023-04-25T01:19:47;5.60;;;2.75;;
77586;SDS011;66744;49.716;17.158;2023-04-25T01:22:50;3.08;;;2.45;;
77586;SDS011;66744;49.716;17.158;2023-04-25T01:25:52;3.38;;;2.35;;
77586;SDS011;66744;49.716;17.158;2023-04-25T01:28:54;3.50;;;2.50;;
77586;SDS011;66744;49.716;17.158;2023-04-25T01:31:55;3.60;;;2.30;;
77586;SDS011;66744;49.716;17.158;2023-04-25T01:34:59;4.32;;;3.30;;
77586;SDS011;66744;49.716;17.158;2023-04-25T01:38:00;3.33;;;2.47;;
77586;SDS011;66744;49.716;17.158;2023-04-25T01:41:02;3.10;;;2.35;;
77586;SDS011;66744;49.716;17.158;2023-04-25T01:44:03;6.70;;;2.90;;
77586;SDS011;66744;49.716;17.158;2023-04-25T01:47:05;3.00;;;2.17;;
77586;SDS011;66744;49.716;17.158;2023-04-25T01:50:07;4.38;;;2.55;;
77586;SDS011;66744;49.716;17.158;2023-04-25T01:53:10;2.88;;;2.30;;
77586;SDS011;66744;49.716;17.158;2023-04-25T01:56:14;3.17;;;2.30;;
77586;SDS011;66744;49.716;17.158;2023-04-25T01:59:15;4.03;;;2.67;;
77586;SDS011;66744;49.716;17.158;2023-04-25T02:02:29;3.88;;;2.75;;
77586;SDS011;66744;49.716;17.158;2023-04-25T02:05:34;3.90;;;2.45;;
77586;SDS011;66744;49.716;17.158;2023-04-25T02:08:39;3.70;;;2.60;;
77586;SDS011;66744;49.716;17.158;2023-04-25T02:11:40;3.53;;;2.63;;
77586;SDS011;66744;49.716;17.158;2023-04-25T02:15:00;3.85;;;2.42;;
77586;SDS011;66744;49.716;17.158;2023-04-25T02:18:21;4.13;;;2.90;;
77586;SDS011;66744;49.716;17.158;2023-04-25T02:21:22;3.40;;;2.28;;
77586;SDS011;66744;49.716;17.158;2023-04-25T02:24:23;3.55;;;2.65;;
77586;SDS011;66744;49.716;17.158;2023-04-25T02:27:25;3.45;;;2.35;;
77586;SDS011;66744;49.716;17.158;2023-04-25T02:30:26;3.28;;;2.50;;
77586;SDS011;66744;49.716;17.158;2023-04-25T02:33:27;3.30;;;2.78;;
77586;SDS011;66744;49.716;17.158;2023-04-25T02:36:28;2.67;;;2.08;;
77586;SDS011;66744;49.716;17.158;2023-04-25T02:39:32;4.50;;;2.63;;
77586;SDS011;66744;49.716;17.158;2023-04-25T02:42:34;4.85;;;2.58;;
77586;SDS011;66744;49.716;17.158;2023-04-25T02:45:35;3.92;;;2.95;;
77586;SDS011;66744;49.716;17.158;2023-04-25T02:48:36;3.33;;;2.40;;
77586;SDS011;66744;49.716;17.158;2023-04-25T02:51:38;5.15;;;3.25;;
77586;SDS011;66744;49.716;17.158;2023-04-25T02:54:39;3.75;;;2.55;;
77586;SDS011;66744;49.716;17.158;2023-04-25T02:57:41;4.40;;;2.72;;
77586;SDS011;66744;49.716;17.158;2023-04-25T03:00:45;5.72;;;2.60;;
77586;SDS011;66744;49.716;17.158;2023-04-25T03:03:47;4.40;;;3.10;;
77586;SDS011;66744;49.716;17.158;2023-04-25T03:06:48;3.38;;;2.70;;
77586;SDS011;66744;49.716;17.158;2023-04-25T03:09:49;4.97;;;2.72;;
77586;SDS011;66744;49.716;17.158;2023-04-25T03:12:50;3.70;;;2.60;;
77586;SDS011;66744;49.716;17.158;2023-04-25T03:15:52;3.80;;;2.67;;
77586;SDS011;66744;49.716;17.158;2023-04-25T03:18:53;4.38;;;2.92;;
77586;SDS011;66744;49.716;17.158;2023-04-25T03:21:55;4.38;;;2.75;;
77586;SDS011;66744;49.716;17.158;2023-04-25T03:24:56;4.30;;;3.30;;
77586;SDS011;66744;49.716;17.158;2023-04-25T03:27:57;5.88;;;3.42;;
77586;SDS011;66744;49.716;17.158;2023-04-25T03:30:59;4.32;;;2.90;;
77586;SDS011;66744;49.716;17.158;2023-04-25T03:34:00;6.90;;;3.28;;
77586;SDS011;66744;49.716;17.158;2023-04-25T03:37:01;4.82;;;3.15;;
77586;SDS011;66744;49.716;17.158;2023-04-25T03:40:06;4.07;;;3.05;;
77586;SDS011;66744;49.716;17.158;2023-04-25T03:43:27;4.28;;;2.40;;
77586;SDS011;66744;49.716;17.158;2023-04-25T03:46:34;3.67;;;3.20;;
77586;SDS011;66744;49.716;17.158;2023-04-25T03:49:35;5.65;;;3.13;;
77586;SDS011;66744;49.716;17.158;2023-04-25T03:52:39;4.90;;;3.60;;
77586;SDS011;66744;49.716;17.158;2023-04-25T03:55:40;4.05;;;3.22;;
77586;SDS011;66744;49.716;17.158;2023-04-25T03:58:43;6.55;;;3.70;;
77586;SDS011;66744;49.716;17.158;2023-04-25T04:01:44;3.50;;;2.92;;
77586;SDS011;66744;49.716;17.158;2023-04-25T04:04:46;3.63;;;2.90;;
77586;SDS011;66744;49.716;17.158;2023-04-25T04:07:47;4.63;;;3.13;;
77586;SDS011;66744;49.716;17.158;2023-04-25T04:10:51;4.25;;;3.17;;
77586;SDS011;66744;49.716;17.158;2023-04-25T04:13:52;7.40;;;3.00;;
77586;SDS011;66744;49.716;17.158;2023-04-25T04:16:53;4.47;;;3.67;;
77586;SDS011;66744;49.716;17.158;2023-04-25T04:19:56;4.72;;;3.45;;
77586;SDS011;66744;49.716;17.158;2023-04-25T04:22:57;4.80;;;3.25;;
77586;SDS011;66744;49.716;17.158;2023-04-25T04:25:59;5.22;;;3.13;;
77586;SDS011;66744;49.716;17.158;2023-04-25T04:29:01;4.15;;;3.20;;
77586;SDS011;66744;49.716;17.158;2023-04-25T04:32:13;4.57;;;3.42;;
77586;SDS011;66744;49.716;17.158;2023-04-25T04:35:15;5.15;;;3.08;;
77586;SDS011;66744;49.716;17.158;2023-04-25T04:38:16;5.18;;;3.80;;
77586;SDS011;66744;49.716;17.158;2023-04-25T04:41:19;4.15;;;2.85;;
77586;SDS011;66744;49.716;17.158;2023-04-25T04:44:29;4.90;;;3.15;;
77586;SDS011;66744;49.716;17.158;2023-04-25T04:48:06;4.15;;;2.90;;
77586;SDS011;66744;49.716;17.158;2023-04-25T04:51:35;3.53;;;2.72;;
77586;SDS011;66744;49.716;17.158;2023-04-25T04:58:28;3.65;;;2.85;;
77586;SDS011;66744;49.716;17.158;2023-04-25T05:01:55;3.25;;;2.78;;
77586;SDS011;66744;49.716;17.158;2023-04-25T05:05:09;4.03;;;3.20;;
77586;SDS011;66744;49.716;17.158;2023-04-25T05:08:31;3.80;;;3.03;;
77586;SDS011;66744;49.716;17.158;2023-04-25T05:11:58;5.72;;;3.67;;
77586;SDS011;66744;49.716;17.158;2023-04-25T05:15:18;4.38;;;3.63;;
77586;SDS011;66744;49.716;17.158;2023-04-25T05:18:38;6.63;;;3.45;;
77586;SDS011;66744;49.716;17.158;2023-04-25T05:22:09;9.73;;;4.30;;
77586;SDS011;66744;49.716;17.158;2023-04-25T05:25:34;5.72;;;4.22;;
77586;SDS011;66744;49.716;17.158;2023-04-25T05:28:55;5.72;;;4.50;;
77586;SDS011;66744;49.716;17.158;2023-04-25T05:32:28;5.65;;;3.70;;
77586;SDS011;66744;49.716;17.158;2023-04-25T05:35:30;3.58;;;3.13;;
77586;SDS011;66744;49.716;17.158;2023-04-25T05:38:31;5.22;;;4.35;;
77586;SDS011;66744;49.716;17.158;2023-04-25T05:42:11;4.68;;;3.67;;
77586;SDS011;66744;49.716;17.158;2023-04-25T05:45:41;4.30;;;3.47;;
77586;SDS011;66744;49.716;17.158;2023-04-25T05:48:56;6.25;;;3.88;;
77586;SDS011;66744;49.716;17.158;2023-04-25T05:52:35;5.15;;;3.67;;
77586;SDS011;66744;49.716;17.158;2023-04-25T05:56:01;5.15;;;4.00;;
77586;SDS011;66744;49.716;17.158;2023-04-25T05:59:04;3.92;;;3.35;;
77586;SDS011;66744;49.716;17.158;2023-04-25T06:02:05;4.53;;;3.55;;
77586;SDS011;66744;49.716;17.158;2023-04-25T06:05:09;5.63;;;4.40;;
77586;SDS011;66744;49.716;17.158;2023-04-25T06:08:11;6.25;;;4.00;;
77586;SDS011;66744;49.716;17.158;2023-04-25T06:11:12;6.03;;;4.00;;
77586;SDS011;66744;49.716;17.158;2023-04-25T06:14:16;6.22;;;4.32;;
77586;SDS011;66744;49.716;17.158;2023-04-25T06:17:22;4.72;;;3.90;;
77586;SDS011;66744;49.716;17.158;2023-04-25T06:20:27;5.18;;;3.72;;
77586;SDS011;66744;49.716;17.158;2023-04-25T06:23:31;4.68;;;3.70;;
77586;SDS011;66744;49.716;17.158;2023-04-25T06:26:38;5.63;;;4.32;;
77586;SDS011;66744;49.716;17.158;2023-04-25T06:29:40;5.65;;;4.18;;
77586;SDS011;66744;49.716;17.158;2023-04-25T06:32:43;6.32;;;4.32;;
77586;SDS011;66744;49.716;17.158;2023-04-25T06:35:45;6.43;;;4.50;;
77586;SDS011;66744;49.716;17.158;2023-04-25T06:38:48;6.70;;;5.13;;
77586;SDS011;66744;49.716;17.158;2023-04-25T06:41:49;5.15;;;4.30;;
77586;SDS011;66744;49.716;17.158;2023-04-25T06:45:12;6.63;;;4.78;;
77586;SDS011;66744;49.716;17.158;2023-04-25T06:48:15;5.32;;;4.45;;
77586;SDS011;66744;49.716;17.158;2023-04-25T06:51:17;6.50;;;4.40;;
77586;SDS011;66744;49.716;17.158;2023-04-25T06:54:19;5.97;;;4.13;;
77586;SDS011;66744;49.716;17.158;2023-04-25T06:57:31;5.38;;;4.00;;
77586;SDS011;66744;49.716;17.158;2023-04-25T07:00:47;5.28;;;4.55;;
77586;SDS011;66744;49.716;17.158;2023-04-25T07:03:48;6.57;;;4.43;;
77586;SDS011;66744;49.716;17.158;2023-04-25T07:06:52;4.80;;;3.80;;
77586;SDS011;66744;49.716;17.158;2023-04-25T07:10:01;6.25;;;3.90;;
77586;SDS011;66744;49.716;17.158;2023-04-25T07:13:03;5.63;;;3.80;;
77586;SDS011;66744;49.716;17.158;2023-04-25T07:16:05;5.28;;;4.18;;
77586;SDS011;66744;49.716;17.158;2023-04-25T07:19:08;5.15;;;4.55;;
77586;SDS011;66744;49.716;17.158;2023-04-25T07:22:13;6.35;;;4.22;;
77586;SDS011;66744;49.716;17.158;2023-04-25T07:25:16;7.38;;;4.40;;
77586;SDS011;66744;49.716;17.158;2023-04-25T07:28:18;4.93;;;4.28;;
77586;SDS011;66744;49.716;17.158;2023-04-25T07:31:19;7.38;;;5.88;;
77586;SDS011;66744;49.716;17.158;2023-04-25T07:34:21;6.32;;;5.55;;
77586;SDS011;66744;49.716;17.158;2023-04-25T07:37:23;7.45;;;5.00;;
77586;SDS011;66744;49.716;17.158;2023-04-25T07:40:40;5.40;;;4.10;;
77586;SDS011;66744;49.716;17.158;2023-04-25T07:43:48;6.00;;;5.30;;
77586;SDS011;66744;49.716;17.158;2023-04-25T07:46:49;5.32;;;4.55;;
77586;SDS011;66744;49.716;17.158;2023-04-25T07:49:51;6.47;;;4.85;;
77586;SDS011;66744;49.716;17.158;2023-04-25T07:52:52;5.72;;;4.15;;
77586;SDS011;66744;49.716;17.158;2023-04-25T07:56:02;5.70;;;4.13;;
77586;SDS011;66744;49.716;17.158;2023-04-25T07:59:07;5.35;;;3.63;;
77586;SDS011;66744;49.716;17.158;2023-04-25T08:02:09;7.75;;;4.07;;
77586;SDS011;66744;49.716;17.158;2023-04-25T08:05:11;6.38;;;3.90;;
77586;SDS011;66744;49.716;17.158;2023-04-25T08:08:17;4.32;;;3.92;;
77586;SDS011;66744;49.716;17.158;2023-04-25T08:11:18;6.53;;;3.95;;
77586;SDS011;66744;49.716;17.158;2023-04-25T08:14:20;4.65;;;3.90;;
77586;SDS011;66744;49.716;17.158;2023-04-25T08:17:22;6.05;;;4.03;;
77586;SDS011;66744;49.716;17.158;2023-04-25T08:20:24;3.75;;;3.30;;
77586;SDS011;66744;49.716;17.158;2023-04-25T08:23:28;4.65;;;3.70;;
77586;SDS011;66744;49.716;17.158;2023-04-25T08:26:38;7.82;;;4.03;;
77586;SDS011;66744;49.716;17.158;2023-04-25T08:29:42;5.32;;;4.40;;
77586;SDS011;66744;49.716;17.158;2023-04-25T08:32:43;6.75;;;4.63;;
77586;SDS011;66744;49.716;17.158;2023-04-25T08:36:14;5.85;;;4.10;;
77586;SDS011;66744;49.716;17.158;2023-04-25T08:39:16;7.60;;;4.63;;
77586;SDS011;66744;49.716;17.158;2023-04-25T08:42:35;6.22;;;4.30;;
77586;SDS011;66744;49.716;17.158;2023-04-25T08:45:40;7.95;;;4.18;;
77586;SDS011;66744;49.716;17.158;2023-04-25T08:48:50;5.13;;;3.80;;
77586;SDS011;66744;49.716;17.158;2023-04-25T08:51:56;7.40;;;4.47;;
77586;SDS011;66744;49.716;17.158;2023-04-25T08:55:02;6.15;;;3.90;;
77586;SDS011;66744;49.716;17.158;2023-04-25T08:58:05;5.25;;;4.43;;
77586;SDS011;66744;49.716;17.158;2023-04-25T09:01:07;4.72;;;3.45;;
77586;SDS011;66744;49.716;17.158;2023-04-25T09:04:17;3.45;;;2.35;;
77586;SDS011;66744;49.716;17.158;2023-04-25T09:07:21;4.30;;;3.30;;
77586;SDS011;66744;49.716;17.158;2023-04-25T09:10:22;4.43;;;3.55;;
77586;SDS011;66744;49.716;17.158;2023-04-25T09:13:27;7.13;;;4.05;;
77586;SDS011;66744;49.716;17.158;2023-04-25T09:17:01;5.65;;;3.47;;
77586;SDS011;66744;49.716;17.158;2023-04-25T09:20:26;3.28;;;2.88;;
77586;SDS011;66744;49.716;17.158;2023-04-25T09:23:29;5.03;;;3.30;;
77586;SDS011;66744;49.716;17.158;2023-04-25T09:26:32;5.53;;;3.30;;
77586;SDS011;66744;49.716;17.158;2023-04-25T09:29:36;4.05;;;3.00;;
77586;SDS011;66744;49.716;17.158;2023-04-25T09:32:39;6.13;;;3.65;;
77586;SDS011;66744;49.716;17.158;2023-04-25T09:35:43;6.18;;;3.42;;
77586;SDS011;66744;49.716;17.158;2023-04-25T09:38:57;4.57;;;2.60;;
77586;SDS011;66744;49.716;17.158;2023-04-25T09:42:07;5.43;;;3.10;;
77586;SDS011;66744;49.716;17.158;2023-04-25T09:45:12;4.13;;;3.20;;
77586;SDS011;66744;49.716;17.158;2023-04-25T09:48:19;7.90;;;3.67;;
77586;SDS011;66744;49.716;17.158;2023-04-25T09:51:27;5.63;;;3.65;;
77586;SDS011;66744;49.716;17.158;2023-04-25T09:54:29;5.38;;;3.72;;
77586;SDS011;66744;49.716;17.158;2023-04-25T09:57:50;3.85;;;3.00;;
77586;SDS011;66744;49.716;17.158;2023-04-25T10:00:57;5.38;;;4.20;;
77586;SDS011;66744;49.716;17.158;2023-04-25T10:04:10;5.15;;;3.17;;
77586;SDS011;66744;49.716;17.158;2023-04-25T10:07:22;4.72;;;3.30;;
77586;SDS011;66744;49.716;17.158;2023-04-25T10:10:29;6.15;;;3.83;;
77586;SDS011;66744;49.716;17.158;2023-04-25T10:13:34;3.78;;;3.30;;
77586;SDS011;66744;49.716;17.158;2023-04-25T10:16:36;4.35;;;3.35;;
77586;SDS011;66744;49.716;17.158;2023-04-25T10:19:39;5.25;;;3.53;;
77586;SDS011;66744;49.716;17.158;2023-04-25T10:22:41;4.35;;;3.25;;
77586;SDS011;66744;49.716;17.158;2023-04-25T10:25:44;5.45;;;3.22;;
77586;SDS011;66744;49.716;17.158;2023-04-25T10:32:00;3.70;;;3.13;;
77586;SDS011;66744;49.716;17.158;2023-04-25T10:35:14;4.10;;;3.10;;
77586;SDS011;66744;49.716;17.158;2023-04-25T10:45:28;3.15;;;2.13;;
77586;SDS011;66744;49.716;17.158;2023-04-25T10:48:37;3.65;;;2.42;;
77586;SDS011;66744;49.716;17.158;2023-04-25T10:51:47;5.30;;;2.50;;
77586;SDS011;66744;49.716;17.158;2023-04-25T10:54:56;4.88;;;2.25;;
77586;SDS011;66744;49.716;17.158;2023-04-25T10:58:03;2.03;;;1.50;;
77586;SDS011;66744;49.716;17.158;2023-04-25T11:01:21;3.80;;;1.92;;
77586;SDS011;66744;49.716;17.158;2023-04-25T11:04:28;2.65;;;2.20;;
77586;SDS011;66744;49.716;17.158;2023-04-25T11:07:54;4.72;;;2.15;;
77586;SDS011;66744;49.716;17.158;2023-04-25T11:11:07;3.80;;;2.47;;
77586;SDS011;66744;49.716;17.158;2023-04-25T11:14:09;2.60;;;2.08;;
77586;SDS011;66744;49.716;17.158;2023-04-25T11:17:11;7.07;;;2.33;;
77586;SDS011;66744;49.716;17.158;2023-04-25T11:20:13;3.65;;;2.33;;
77586;SDS011;66744;49.716;17.158;2023-04-25T11:23:53;4.60;;;2.63;;
77586;SDS011;66744;49.716;17.158;2023-04-25T11:27:26;3.10;;;2.22;;
77586;SDS011;66744;49.716;17.158;2023-04-25T11:30:26;3.63;;;2.45;;
77586;SDS011;66744;49.716;17.158;2023-04-25T11:33:39;3.15;;;2.47;;
77586;SDS011;66744;49.716;17.158;2023-04-25T11:37:00;2.95;;;2.40;;
77586;SDS011;66744;49.716;17.158;2023-04-25T11:40:18;3.80;;;2.55;;
77586;SDS011;66744;49.716;17.158;2023-04-25T11:43:20;4.72;;;2.75;;
77586;SDS011;66744;49.716;17.158;2023-04-25T11:46:34;3.72;;;2.00;;
77586;SDS011;66744;49.716;17.158;2023-04-25T11:49:44;3.75;;;2.33;;
77586;SDS011;66744;49.716;17.158;2023-04-25T11:52:48;4.05;;;2.20;;
77586;SDS011;66744;49.716;17.158;2023-04-25T11:55:58;2.30;;;2.08;;
77586;SDS011;66744;49.716;17.158;2023-04-25T11:59:12;3.67;;;1.98;;
77586;SDS011;66744;49.716;17.158;2023-04-25T12:02:24;2.85;;;2.40;;
77586;SDS011;66744;49.716;17.158;2023-04-25T12:05:44;5.20;;;1.92;;
77586;SDS011;66744;49.716;17.158;2023-04-25T12:09:04;2.25;;;1.83;;
77586;SDS011;66744;49.716;17.158;2023-04-25T12:12:09;2.72;;;1.70;;
77586;SDS011;66744;49.716;17.158;2023-04-25T12:15:17;1.90;;;1.73;;
77586;SDS011;66744;49.716;17.158;2023-04-25T12:18:25;1.70;;;1.48;;
77586;SDS011;66744;49.716;17.158;2023-04-25T12:21:34;2.38;;;1.50;;
77586;SDS011;66744;49.716;17.158;2023-04-25T12:24:37;2.45;;;1.70;;
77586;SDS011;66744;49.716;17.158;2023-04-25T12:28:08;2.17;;;1.35;;
77586;SDS011;66744;49.716;17.158;2023-04-25T12:31:53;3.05;;;1.73;;
77586;SDS011;66744;49.716;17.158;2023-04-25T12:35:18;3.25;;;1.70;;
77586;SDS011;66744;49.716;17.158;2023-04-25T12:38:35;2.47;;;1.52;;
77586;SDS011;66744;49.716;17.158;2023-04-25T12:41:37;1.98;;;1.63;;
77586;SDS011;66744;49.716;17.158;2023-04-25T12:44:46;1.85;;;1.63;;
77586;SDS011;66744;49.716;17.158;2023-04-25T12:47:48;2.38;;;1.85;;
77586;SDS011;66744;49.716;17.158;2023-04-25T12:50:49;2.47;;;1.40;;
77586;SDS011;66744;49.716;17.158;2023-04-25T12:53:55;1.88;;;1.50;;
77586;SDS011;66744;49.716;17.158;2023-04-25T12:56:59;2.05;;;1.75;;
77586;SDS011;66744;49.716;17.158;2023-04-25T13:00:09;2.67;;;1.98;;
77586;SDS011;66744;49.716;17.158;2023-04-25T13:03:13;5.30;;;1.92;;
77586;SDS011;66744;49.716;17.158;2023-04-25T13:06:25;2.53;;;1.70;;
77586;SDS011;66744;49.716;17.158;2023-04-25T13:09:32;2.38;;;2.13;;
77586;SDS011;66744;49.716;17.158;2023-04-25T13:12:33;4.80;;;2.25;;
77586;SDS011;66744;49.716;17.158;2023-04-25T13:16:01;2.63;;;2.10;;
77586;SDS011;66744;49.716;17.158;2023-04-25T13:19:22;4.97;;;1.92;;
77586;SDS011;66744;49.716;17.158;2023-04-25T13:22:31;2.50;;;2.00;;
77586;SDS011;66744;49.716;17.158;2023-04-25T13:25:32;2.25;;;2.00;;
77586;SDS011;66744;49.716;17.158;2023-04-25T13:28:33;4.07;;;1.85;;
77586;SDS011;66744;49.716;17.158;2023-04-25T13:31:37;2.92;;;2.00;;
77586;SDS011;66744;49.716;17.158;2023-04-25T13:34:38;3.03;;;2.13;;
77586;SDS011;66744;49.716;17.158;2023-04-25T13:37:39;2.30;;;1.95;;
77586;SDS011;66744;49.716;17.158;2023-04-25T13:40:41;4.82;;;1.88;;
77586;SDS011;66744;49.716;17.158;2023-04-25T13:43:42;2.10;;;1.70;;
77586;SDS011;66744;49.716;17.158;2023-04-25T13:46:43;2.05;;;1.40;;
77586;SDS011;66744;49.716;17.158;2023-04-25T13:49:45;2.13;;;1.40;;
77586;SDS011;66744;49.716;17.158;2023-04-25T13:52:47;1.92;;;1.60;;
77586;SDS011;66744;49.716;17.158;2023-04-25T13:55:48;2.42;;;1.65;;
77586;SDS011;66744;49.716;17.158;2023-04-25T13:58:52;3.05;;;1.50;;
77586;SDS011;66744;49.716;17.158;2023-04-25T14:01:53;2.95;;;1.88;;
77586;SDS011;66744;49.716;17.158;2023-04-25T14:04:54;2.95;;;1.75;;
77586;SDS011;66744;49.716;17.158;2023-04-25T14:07:56;4.03;;;2.00;;
77586;SDS011;66744;49.716;17.158;2023-04-25T14:10:57;2.42;;;1.90;;
77586;SDS011;66744;49.716;17.158;2023-04-25T14:13:58;2.28;;;1.50;;
77586;SDS011;66744;49.716;17.158;2023-04-25T14:17:11;4.63;;;1.80;;
77586;SDS011;66744;49.716;17.158;2023-04-25T14:20:13;3.13;;;1.67;;
77586;SDS011;66744;49.716;17.158;2023-04-25T14:23:24;1.98;;;1.42;;
77586;SDS011;66744;49.716;17.158;2023-04-25T14:26:26;2.13;;;1.55;;
77586;SDS011;66744;49.716;17.158;2023-04-25T14:29:27;2.30;;;1.50;;
77586;SDS011;66744;49.716;17.158;2023-04-25T14:32:33;4.07;;;1.70;;
77586;SDS011;66744;49.716;17.158;2023-04-25T14:39:10;1.90;;;1.38;;
77586;SDS011;66744;49.716;17.158;2023-04-25T14:42:14;3.13;;;1.50;;
77586;SDS011;66744;49.716;17.158;2023-04-25T14:45:18;3.13;;;1.75;;
77586;SDS011;66744;49.716;17.158;2023-04-25T14:48:19;3.03;;;1.73;;
77586;SDS011;66744;49.716;17.158;2023-04-25T14:51:21;2.22;;;1.58;;
77586;SDS011;66744;49.716;17.158;2023-04-25T14:54:22;6.10;;;1.40;;
77586;SDS011;66744;49.716;17.158;2023-04-25T14:57:23;2.58;;;2.17;;
77586;SDS011;66744;49.716;17.158;2023-04-25T15:00:24;4.13;;;2.35;;
77586;SDS011;66744;49.716;17.158;2023-04-25T15:03:26;4.75;;;2.58;;
77586;SDS011;66744;49.716;17.158;2023-04-25T15:06:27;2.05;;;1.73;;
77586;SDS011;66744;49.716;17.158;2023-04-25T15:09:29;2.75;;;1.70;;
77586;SDS011;66744;49.716;17.158;2023-04-25T15:12:32;1.50;;;1.40;;
77586;SDS011;66744;49.716;17.158;2023-04-25T15:15:33;2.10;;;1.60;;
77586;SDS011;66744;49.716;17.158;2023-04-25T15:18:34;5.60;;;3.92;;
77586;SDS011;66744;49.716;17.158;2023-04-25T15:21:36;13.43;;;4.82;;
77586;SDS011;66744;49.716;17.158;2023-04-25T15:24:37;9.63;;;5.22;;
77586;SDS011;66744;49.716;17.158;2023-04-25T15:27:38;8.38;;;5.28;;
77586;SDS011;66744;49.716;17.158;2023-04-25T15:30:44;7.45;;;5.13;;
77586;SDS011;66744;49.716;17.158;2023-04-25T15:33:46;10.25;;;5.63;;
77586;SDS011;66744;49.716;17.158;2023-04-25T15:36:47;5.82;;;4.63;;
77586;SDS011;66744;49.716;17.158;2023-04-25T15:39:48;8.50;;;5.57;;
77586;SDS011;66744;49.716;17.158;2023-04-25T15:43:02;9.43;;;6.50;;
77586;SDS011;66744;49.716;17.158;2023-04-25T15:46:04;8.90;;;6.53;;
77586;SDS011;66744;49.716;17.158;2023-04-25T15:49:06;10.00;;;6.53;;
77586;SDS011;66744;49.716;17.158;2023-04-25T15:52:07;9.25;;;7.13;;
77586;SDS011;66744;49.716;17.158;2023-04-25T15:55:09;8.07;;;6.60;;
77586;SDS011;66744;49.716;17.158;2023-04-25T15:58:11;7.18;;;5.93;;
77586;SDS011;66744;49.716;17.158;2023-04-25T16:01:12;8.55;;;6.68;;
77586;SDS011;66744;49.716;17.158;2023-04-25T16:04:14;8.25;;;6.85;;
77586;SDS011;66744;49.716;17.158;2023-04-25T16:07:15;8.32;;;6.32;;
77586;SDS011;66744;49.716;17.158;2023-04-25T16:10:17;7.43;;;6.63;;
77586;SDS011;66744;49.716;17.158;2023-04-25T16:13:21;8.43;;;6.18;;
77586;SDS011;66744;49.716;17.158;2023-04-25T16:16:22;9.15;;;5.45;;
77586;SDS011;66744;49.716;17.158;2023-04-25T16:19:23;5.53;;;4.63;;
77586;SDS011;66744;49.716;17.158;2023-04-25T16:22:25;5.70;;;4.00;;
77586;SDS011;66744;49.716;17.158;2023-04-25T16:25:26;10.77;;;9.75;;
77586;SDS011;66744;49.716;17.158;2023-04-25T16:28:28;17.42;;;15.85;;
77586;SDS011;66744;49.716;17.158;2023-04-25T16:31:29;6.80;;;6.18;;
77586;SDS011;66744;49.716;17.158;2023-04-25T16:34:31;5.53;;;4.93;;
77586;SDS011;66744;49.716;17.158;2023-04-25T16:37:32;6.00;;;4.47;;
77586;SDS011;66744;49.716;17.158;2023-04-25T16:40:34;4.53;;;3.97;;
77586;SDS011;66744;49.716;17.158;2023-04-25T16:43:36;5.20;;;4.00;;
77586;SDS011;66744;49.716;17.158;2023-04-25T16:46:40;4.63;;;3.63;;
77586;SDS011;66744;49.716;17.158;2023-04-25T16:49:41;5.65;;;3.60;;
77586;SDS011;66744;49.716;17.158;2023-04-25T16:52:43;3.45;;;3.13;;
77586;SDS011;66744;49.716;17.158;2023-04-25T16:55:51;5.45;;;4.25;;
77586;SDS011;66744;49.716;17.158;2023-04-25T16:58:54;4.45;;;3.63;;
77586;SDS011;66744;49.716;17.158;2023-04-25T17:01:55;4.97;;;3.50;;
77586;SDS011;66744;49.716;17.158;2023-04-25T17:04:57;6.30;;;3.72;;
77586;SDS011;66744;49.716;17.158;2023-04-25T17:07:59;5.60;;;4.38;;
77586;SDS011;66744;49.716;17.158;2023-04-25T17:11:01;5.32;;;3.55;;
77586;SDS011;66744;49.716;17.158;2023-04-25T17:14:03;5.97;;;4.03;;
77586;SDS011;66744;49.716;17.158;2023-04-25T17:17:05;6.43;;;4.63;;
77586;SDS011;66744;49.716;17.158;2023-04-25T17:20:07;7.20;;;4.40;;
77586;SDS011;66744;49.716;17.158;2023-04-25T17:23:12;6.82;;;4.45;;
77586;SDS011;66744;49.716;17.158;2023-04-25T17:26:13;6.43;;;4.97;;
77586;SDS011;66744;49.716;17.158;2023-04-25T17:29:15;9.40;;;6.10;;
77586;SDS011;66744;49.716;17.158;2023-04-25T17:32:19;8.93;;;5.78;;
77586;SDS011;66744;49.716;17.158;2023-04-25T17:35:20;8.35;;;6.22;;
77586;SDS011;66744;49.716;17.158;2023-04-25T17:38:23;8.38;;;6.43;;
77586;SDS011;66744;49.716;17.158;2023-04-25T17:41:24;7.55;;;5.40;;
77586;SDS011;66744;49.716;17.158;2023-04-25T17:44:26;7.65;;;5.82;;
77586;SDS011;66744;49.716;17.158;2023-04-25T17:47:27;9.43;;;5.38;;
77586;SDS011;66744;49.716;17.158;2023-04-25T17:50:29;7.90;;;5.65;;
77586;SDS011;66744;49.716;17.158;2023-04-25T17:53:31;8.82;;;5.63;;
77586;SDS011;66744;49.716;17.158;2023-04-25T17:56:42;8.65;;;5.72;;
77586;SDS011;66744;49.716;17.158;2023-04-25T17:59:45;7.22;;;5.97;;
77586;SDS011;66744;49.716;17.158;2023-04-25T18:02:47;8.10;;;5.70;;
77586;SDS011;66744;49.716;17.158;2023-04-25T18:05:51;12.88;;;11.35;;
77586;SDS011;66744;49.716;17.158;2023-04-25T18:08:52;8.48;;;6.88;;
77586;SDS011;66744;49.716;17.158;2023-04-25T18:11:55;8.05;;;5.03;;
77586;SDS011;66744;49.716;17.158;2023-04-25T18:14:58;6.43;;;4.00;;
77586;SDS011;66744;49.716;17.158;2023-04-25T18:18:00;7.22;;;4.70;;
77586;SDS011;66744;49.716;17.158;2023-04-25T18:21:09;5.22;;;4.15;;
77586;SDS011;66744;49.716;17.158;2023-04-25T18:24:11;4.85;;;3.10;;
77586;SDS011;66744;49.716;17.158;2023-04-25T18:27:15;4.03;;;3.08;;
77586;SDS011;66744;49.716;17.158;2023-04-25T18:30:17;2.95;;;2.45;;
77586;SDS011;66744;49.716;17.158;2023-04-25T18:33:18;3.75;;;3.00;;
77586;SDS011;66744;49.716;17.158;2023-04-25T18:36:21;9.18;;;5.38;;
77586;SDS011;66744;49.716;17.158;2023-04-25T18:39:22;3.75;;;3.38;;